< Typhoon 197606 1976 Season Typhoon 197608 >
Typhoon 197607 (RUBY)
General InformationTrack Information on Google Maps || Disaster Info.ResourceGoogle EarthGE AnimationAtom FeedGeoJSON
Detalied Best Track (Time Zone = UTC)
Year Month Day Hour Lat. Long. Pressure (hPa) Wind (kt) Class Image Chart
1976 6 21 00 12.0 137.0 1006 0 2 -- Chart
1976 6 21 06 12.0 136.0 1004 0 2 -- Chart
1976 6 21 12 12.0 135.0 1004 0 2 -- Chart
1976 6 21 18 12.0 133.5 1004 0 2 -- Chart
1976 6 22 00 12.0 132.0 1004 0 2 -- Chart
1976 6 22 06 12.0 131.0 1002 0 2 -- Chart
1976 6 22 12 12.0 130.0 1002 0 2 -- Chart
1976 6 22 18 12.0 129.0 1002 0 2 -- Chart
1976 6 23 00 12.0 128.0 1000 0 2 -- Chart
1976 6 23 06 12.1 127.5 996 0 2 -- Chart
1976 6 23 12 12.2 127.0 990 0 9 -- Chart
1976 6 23 18 12.4 126.1 985 0 9 -- Chart
1976 6 24 00 12.8 125.1 980 0 9 -- Chart
1976 6 24 06 13.8 124.3 975 0 9 -- Chart
1976 6 24 12 14.4 123.8 970 0 9 -- Chart
1976 6 24 18 14.8 123.2 965 0 9 -- Chart
1976 6 25 00 15.6 122.1 965 0 9 -- Chart
1976 6 25 06 16.0 121.4 970 0 9 -- Chart
1976 6 25 12 17.0 120.0 975 0 9 -- Chart
1976 6 25 18 17.8 118.8 975 0 9 -- Chart
1976 6 26 00 18.2 117.6 985 0 9 -- Chart
1976 6 26 06 18.7 117.2 985 0 9 -- Chart
1976 6 26 12 19.1 116.9 985 0 9 -- Chart
1976 6 26 18 19.3 116.6 980 0 9 -- Chart
1976 6 27 00 19.6 116.6 980 0 9 -- Chart
1976 6 27 06 20.0 116.6 980 0 9 -- Chart
1976 6 27 12 20.5 117.0 980 0 9 -- Chart
1976 6 27 18 20.7 117.5 980 0 9 -- Chart
1976 6 28 00 21.2 118.2 975 0 9 -- Chart
1976 6 28 06 21.2 118.4 975 0 9 -- Chart
1976 6 28 12 21.2 118.7 975 0 9 -- Chart
1976 6 28 18 21.2 119.1 975 0 9 -- Chart
1976 6 29 00 20.8 120.4 975 0 9 -- Chart
1976 6 29 06 20.8 120.8 975 0 9 -- Chart
1976 6 29 12 20.9 121.6 970 0 9 -- Chart
1976 6 29 18 21.1 122.1 970 0 9 -- Chart
1976 6 30 00 21.3 122.6 965 0 9 -- Chart
1976 6 30 06 21.6 123.2 965 0 9 -- Chart
1976 6 30 12 21.8 124.2 960 0 9 -- Chart
1976 6 30 18 22.3 125.1 960 0 9 -- Chart
1976 7 1 00 22.9 126.0 950 0 9 -- Chart
1976 7 1 06 23.5 127.0 945 0 9 -- Chart
1976 7 1 12 24.2 128.2 940 0 9 -- Chart
1976 7 1 18 24.9 129.6 935 0 9 -- Chart
1976 7 2 00 25.5 130.7 940 0 9 -- Chart
1976 7 2 06 26.3 132.3 945 0 9 -- Chart
1976 7 2 12 27.3 133.8 950 0 9 -- Chart
1976 7 2 18 28.3 135.6 960 0 9 -- Chart
1976 7 3 00 29.5 137.6 965 0 9 -- Chart
1976 7 3 06 30.7 139.6 970 0 9 -- Chart
1976 7 3 12 32.0 142.2 970 0 9 -- Chart
1976 7 3 18 33.2 144.8 975 0 9 -- Chart
1976 7 4 00 34.3 147.3 980 0 9 -- Chart
1976 7 4 06 34.9 149.5 984 0 6 -- Chart
1976 7 4 12 35.6 152.5 988 0 6 -- Chart
1976 7 4 18 36.5 156.0 994 0 6 -- Chart
1976 7 5 00 36.9 160.0 1000 0 6 -- Chart
1976 7 5 06 37.0 163.0 1004 0 6 -- Chart
Japan Meteorological Agency Best Track Data | Correction Date : 1992-10-21
< Typhoon 197606 1976 Season Typhoon 197608 >

Help